Terminal Aerodrome Forecast
Issued by NWS

Home | Current Version | Previous Version | Text Only | Print | Product List | Glossary On
Versions: 1 2 3 4 5 6 7 8 9 10 11 12 13 14 15 16 17 18 19 20 21 22 23
146
FTUS46 KLOX 291325 AAA
TAFSBP
TAF AMD
KSBP 291325Z 2913/3012 VRB05KT 3SM BR OVC006
     FM291500 VRB03KT 5SM BR OVC010
     FM291700 22008KT P6SM SCT015
     FM300300 VRB05KT P6SM BKN015
     FM300500 VRB05KT P6SM OVC008=

USA.gov is the U.S. government's official web portal to all federal, state and local government web resources and services.